sensor_id;sensor_type;location;lat;lon;timestamp;pressure;altitude;pressure_sealevel;temperature;humidity
70248;BME280;57641;51.416;5.506;2023-10-08T00:01:09;102398.78;;;21.06;54.39
70248;BME280;57641;51.416;5.506;2023-10-08T00:03:38;102403.75;;;21.03;54.27
70248;BME280;57641;51.416;5.506;2023-10-08T00:06:05;102406.78;;;20.85;54.64
70248;BME280;57641;51.416;5.506;2023-10-08T00:08:32;102404.31;;;20.98;54.35
70248;BME280;57641;51.416;5.506;2023-10-08T00:10:58;102410.59;;;20.76;54.34
70248;BME280;57641;51.416;5.506;2023-10-08T00:13:31;102413.22;;;20.84;54.45
70248;BME280;57641;51.416;5.506;2023-10-08T00:16:01;102423.00;;;20.93;53.98
70248;BME280;57641;51.416;5.506;2023-10-08T00:18:26;102422.06;;;20.41;54.79
70248;BME280;57641;51.416;5.506;2023-10-08T00:20:52;102424.56;;;20.88;54.06
70248;BME280;57641;51.416;5.506;2023-10-08T00:23:41;102422.75;;;20.80;53.96
70248;BME280;57641;51.416;5.506;2023-10-08T00:26:10;102413.31;;;20.53;54.42
70248;BME280;57641;51.416;5.506;2023-10-08T00:28:36;102427.22;;;20.73;54.02
70248;BME280;57641;51.416;5.506;2023-10-08T00:31:02;102425.56;;;20.72;53.61
70248;BME280;57641;51.416;5.506;2023-10-08T00:33:40;102423.06;;;20.62;54.24
70248;BME280;57641;51.416;5.506;2023-10-08T00:36:09;102424.97;;;20.62;54.39
70248;BME280;57641;51.416;5.506;2023-10-08T00:38:48;102431.84;;;20.42;54.46
70248;BME280;57641;51.416;5.506;2023-10-08T00:41:17;102428.06;;;20.20;55.03
70248;BME280;57641;51.416;5.506;2023-10-08T00:43:49;102430.19;;;20.41;55.54
70248;BME280;57641;51.416;5.506;2023-10-08T00:46:17;102424.03;;;20.47;54.51
70248;BME280;57641;51.416;5.506;2023-10-08T00:48:53;102434.28;;;20.29;55.00
70248;BME280;57641;51.416;5.506;2023-10-08T00:51:22;102426.13;;;20.37;54.74
70248;BME280;57641;51.416;5.506;2023-10-08T00:54:03;102425.13;;;20.30;53.91
70248;BME280;57641;51.416;5.506;2023-10-08T00:56:36;102433.38;;;20.44;54.02
70248;BME280;57641;51.416;5.506;2023-10-08T00:59:20;102429.84;;;20.36;53.55
70248;BME280;57641;51.416;5.506;2023-10-08T01:01:48;102440.22;;;20.32;53.41
70248;BME280;57641;51.416;5.506;2023-10-08T01:04:18;102448.16;;;20.25;53.85
70248;BME280;57641;51.416;5.506;2023-10-08T01:06:52;102435.66;;;20.24;54.02
70248;BME280;57641;51.416;5.506;2023-10-08T01:09:25;102436.41;;;20.10;54.27
70248;BME280;57641;51.416;5.506;2023-10-08T01:14:57;102433.13;;;20.23;54.24
70248;BME280;57641;51.416;5.506;2023-10-08T01:17:30;102421.00;;;20.11;53.90
70248;BME280;57641;51.416;5.506;2023-10-08T01:19:58;102422.91;;;20.02;54.42
70248;BME280;57641;51.416;5.506;2023-10-08T01:22:34;102402.03;;;20.11;54.04
70248;BME280;57641;51.416;5.506;2023-10-08T01:25:00;102400.88;;;20.13;53.76
70248;BME280;57641;51.416;5.506;2023-10-08T01:27:30;102412.72;;;20.04;53.96
70248;BME280;57641;51.416;5.506;2023-10-08T01:30:00;102423.94;;;20.01;53.62
70248;BME280;57641;51.416;5.506;2023-10-08T01:32:45;102419.00;;;20.05;54.03
70248;BME280;57641;51.416;5.506;2023-10-08T01:35:11;102423.78;;;19.95;53.88
70248;BME280;57641;51.416;5.506;2023-10-08T01:37:49;102416.69;;;19.94;54.20
70248;BME280;57641;51.416;5.506;2023-10-08T01:40:16;102400.31;;;19.87;54.05
70248;BME280;57641;51.416;5.506;2023-10-08T01:42:43;102406.66;;;19.71;54.45
70248;BME280;57641;51.416;5.506;2023-10-08T01:45:09;102411.16;;;19.79;54.22
70248;BME280;57641;51.416;5.506;2023-10-08T01:47:38;102405.75;;;19.87;53.78
70248;BME280;57641;51.416;5.506;2023-10-08T01:50:03;102397.16;;;19.75;54.21
70248;BME280;57641;51.416;5.506;2023-10-08T01:52:46;102389.38;;;19.72;53.91
70248;BME280;57641;51.416;5.506;2023-10-08T01:55:12;102397.47;;;19.80;54.08
70248;BME280;57641;51.416;5.506;2023-10-08T01:57:43;102398.69;;;19.70;54.03
70248;BME280;57641;51.416;5.506;2023-10-08T02:00:09;102403.28;;;19.69;53.61
70248;BME280;57641;51.416;5.506;2023-10-08T02:02:35;102419.59;;;19.84;53.94
70248;BME280;57641;51.416;5.506;2023-10-08T02:05:00;102406.13;;;19.76;54.21
70248;BME280;57641;51.416;5.506;2023-10-08T02:07:26;102406.47;;;19.73;53.79
70248;BME280;57641;51.416;5.506;2023-10-08T02:09:51;102426.09;;;19.75;53.17
70248;BME280;57641;51.416;5.506;2023-10-08T02:12:18;102425.09;;;19.68;53.45
70248;BME280;57641;51.416;5.506;2023-10-08T02:14:43;102426.63;;;19.70;53.31
70248;BME280;57641;51.416;5.506;2023-10-08T02:17:09;102428.41;;;19.86;53.79
70248;BME280;57641;51.416;5.506;2023-10-08T02:19:35;102427.63;;;19.69;53.70
70248;BME280;57641;51.416;5.506;2023-10-08T02:22:02;102429.84;;;19.58;53.70
70248;BME280;57641;51.416;5.506;2023-10-08T02:24:31;102422.69;;;19.81;53.48
70248;BME280;57641;51.416;5.506;2023-10-08T02:26:57;102417.75;;;19.85;53.33
70248;BME280;57641;51.416;5.506;2023-10-08T02:29:28;102419.34;;;19.63;53.76
70248;BME280;57641;51.416;5.506;2023-10-08T02:31:53;102422.53;;;19.74;53.73
70248;BME280;57641;51.416;5.506;2023-10-08T02:34:19;102429.09;;;19.80;53.64
70248;BME280;57641;51.416;5.506;2023-10-08T02:36:45;102425.41;;;19.73;53.43
70248;BME280;57641;51.416;5.506;2023-10-08T02:39:13;102427.47;;;19.71;52.87
70248;BME280;57641;51.416;5.506;2023-10-08T02:41:42;102427.09;;;19.74;52.71
70248;BME280;57641;51.416;5.506;2023-10-08T02:44:10;102423.91;;;19.70;53.54
70248;BME280;57641;51.416;5.506;2023-10-08T02:46:41;102432.22;;;19.61;53.53
70248;BME280;57641;51.416;5.506;2023-10-08T02:49:08;102430.84;;;19.65;53.25
70248;BME280;57641;51.416;5.506;2023-10-08T02:51:38;102439.19;;;19.55;53.03
70248;BME280;57641;51.416;5.506;2023-10-08T02:54:05;102441.03;;;19.55;53.03
70248;BME280;57641;51.416;5.506;2023-10-08T02:56:32;102439.72;;;19.51;53.41
70248;BME280;57641;51.416;5.506;2023-10-08T02:58:58;102448.63;;;19.59;53.24
70248;BME280;57641;51.416;5.506;2023-10-08T03:01:26;102452.19;;;19.60;52.91
70248;BME280;57641;51.416;5.506;2023-10-08T03:03:51;102448.78;;;19.58;53.00
70248;BME280;57641;51.416;5.506;2023-10-08T03:06:27;102441.34;;;19.60;53.91
70248;BME280;57641;51.416;5.506;2023-10-08T03:08:52;102460.19;;;19.45;53.51
70248;BME280;57641;51.416;5.506;2023-10-08T03:11:18;102452.72;;;19.55;53.09
70248;BME280;57641;51.416;5.506;2023-10-08T03:13:44;102450.13;;;19.62;53.35
70248;BME280;57641;51.416;5.506;2023-10-08T03:16:14;102443.75;;;19.55;53.37
70248;BME280;57641;51.416;5.506;2023-10-08T03:18:41;102454.03;;;19.51;53.76
70248;BME280;57641;51.416;5.506;2023-10-08T03:21:15;102449.16;;;19.55;54.17
70248;BME280;57641;51.416;5.506;2023-10-08T03:23:58;102452.03;;;19.53;54.14
70248;BME280;57641;51.416;5.506;2023-10-08T03:26:24;102454.22;;;19.41;53.88
70248;BME280;57641;51.416;5.506;2023-10-08T03:29:00;102470.47;;;19.25;54.06
70248;BME280;57641;51.416;5.506;2023-10-08T03:31:30;102471.47;;;19.49;53.66
70248;BME280;57641;51.416;5.506;2023-10-08T03:34:15;102474.69;;;19.44;54.61
70248;BME280;57641;51.416;5.506;2023-10-08T03:36:43;102476.69;;;19.42;54.09
70248;BME280;57641;51.416;5.506;2023-10-08T03:39:13;102478.75;;;19.32;54.73
70248;BME280;57641;51.416;5.506;2023-10-08T03:41:42;102477.91;;;19.39;54.67
70248;BME280;57641;51.416;5.506;2023-10-08T03:44:08;102469.78;;;19.48;54.64
70248;BME280;57641;51.416;5.506;2023-10-08T03:46:42;102468.25;;;19.37;54.88
70248;BME280;57641;51.416;5.506;2023-10-08T03:49:12;102471.44;;;19.40;54.83
70248;BME280;57641;51.416;5.506;2023-10-08T03:51:51;102478.56;;;19.41;55.00
70248;BME280;57641;51.416;5.506;2023-10-08T03:54:23;102488.03;;;19.37;54.97
70248;BME280;57641;51.416;5.506;2023-10-08T03:57:01;102481.28;;;19.33;54.67
70248;BME280;57641;51.416;5.506;2023-10-08T03:59:29;102471.16;;;19.27;55.08
70248;BME280;57641;51.416;5.506;2023-10-08T04:02:03;102474.50;;;19.37;55.06
70248;BME280;57641;51.416;5.506;2023-10-08T04:04:54;102473.16;;;19.25;55.14
70248;BME280;57641;51.416;5.506;2023-10-08T04:07:24;102466.59;;;19.12;54.82
70248;BME280;57641;51.416;5.506;2023-10-08T04:09:53;102468.13;;;19.22;54.83
70248;BME280;57641;51.416;5.506;2023-10-08T04:12:34;102476.22;;;19.22;54.98
70248;BME280;57641;51.416;5.506;2023-10-08T04:15:04;102467.44;;;19.04;55.26
70248;BME280;57641;51.416;5.506;2023-10-08T04:17:36;102452.56;;;18.84;55.63
70248;BME280;57641;51.416;5.506;2023-10-08T04:20:09;102449.88;;;19.24;55.30
70248;BME280;57641;51.416;5.506;2023-10-08T04:22:54;102472.50;;;19.23;54.89
70248;BME280;57641;51.416;5.506;2023-10-08T04:25:20;102470.97;;;19.21;54.52
70248;BME280;57641;51.416;5.506;2023-10-08T04:27:45;102459.63;;;19.25;55.09
70248;BME280;57641;51.416;5.506;2023-10-08T04:30:15;102463.72;;;19.21;54.84
70248;BME280;57641;51.416;5.506;2023-10-08T04:32:41;102459.00;;;19.23;55.21
70248;BME280;57641;51.416;5.506;2023-10-08T04:35:07;102469.97;;;19.22;55.09
70248;BME280;57641;51.416;5.506;2023-10-08T04:37:40;102487.38;;;19.19;55.00
70248;BME280;57641;51.416;5.506;2023-10-08T04:40:07;102490.94;;;19.28;55.26
70248;BME280;57641;51.416;5.506;2023-10-08T04:42:41;102495.47;;;19.27;55.45
70248;BME280;57641;51.416;5.506;2023-10-08T04:45:11;102483.84;;;19.19;55.92
70248;BME280;57641;51.416;5.506;2023-10-08T04:47:40;102472.50;;;19.23;55.88
70248;BME280;57641;51.416;5.506;2023-10-08T04:50:08;102494.47;;;19.20;55.46
70248;BME280;57641;51.416;5.506;2023-10-08T04:52:40;102505.13;;;19.22;55.41
70248;BME280;57641;51.416;5.506;2023-10-08T04:55:11;102500.88;;;19.19;55.55
70248;BME280;57641;51.416;5.506;2023-10-08T04:57:45;102495.13;;;19.30;55.87
70248;BME280;57641;51.416;5.506;2023-10-08T05:00:11;102509.50;;;19.15;56.38
70248;BME280;57641;51.416;5.506;2023-10-08T05:02:40;102507.66;;;19.15;55.92
70248;BME280;57641;51.416;5.506;2023-10-08T05:05:15;102505.47;;;19.11;56.42
70248;BME280;57641;51.416;5.506;2023-10-08T05:07:40;102513.41;;;19.12;56.75
70248;BME280;57641;51.416;5.506;2023-10-08T05:10:13;102512.22;;;19.07;56.64
70248;BME280;57641;51.416;5.506;2023-10-08T05:12:55;102510.38;;;19.07;57.13
70248;BME280;57641;51.416;5.506;2023-10-08T05:15:40;102521.16;;;18.99;57.24
70248;BME280;57641;51.416;5.506;2023-10-08T05:18:30;102518.78;;;19.04;57.06
70248;BME280;57641;51.416;5.506;2023-10-08T05:21:15;102517.44;;;19.00;58.51
70248;BME280;57641;51.416;5.506;2023-10-08T05:23:51;102522.00;;;18.99;58.03
70248;BME280;57641;51.416;5.506;2023-10-08T05:26:38;102530.13;;;18.91;59.17
70248;BME280;57641;51.416;5.506;2023-10-08T05:29:08;102535.53;;;18.91;59.13
70248;BME280;57641;51.416;5.506;2023-10-08T05:31:52;102532.78;;;18.83;59.45
70248;BME280;57641;51.416;5.506;2023-10-08T05:34:38;102536.69;;;18.81;59.45
70248;BME280;57641;51.416;5.506;2023-10-08T05:37:08;102536.34;;;18.84;60.00
70248;BME280;57641;51.416;5.506;2023-10-08T05:39:33;102527.25;;;18.77;59.57
70248;BME280;57641;51.416;5.506;2023-10-08T05:42:04;102540.75;;;18.77;59.84
70248;BME280;57641;51.416;5.506;2023-10-08T05:44:44;102543.06;;;18.72;59.14
70248;BME280;57641;51.416;5.506;2023-10-08T05:47:28;102537.66;;;18.64;59.51
70248;BME280;57641;51.416;5.506;2023-10-08T05:50:05;102559.13;;;18.65;59.50
70248;BME280;57641;51.416;5.506;2023-10-08T05:52:43;102570.59;;;18.67;58.96
70248;BME280;57641;51.416;5.506;2023-10-08T05:55:29;102571.97;;;18.71;58.89
70248;BME280;57641;51.416;5.506;2023-10-08T05:58:04;102565.22;;;18.83;59.36
70248;BME280;57641;51.416;5.506;2023-10-08T06:00:44;102554.88;;;18.63;59.40
70248;BME280;57641;51.416;5.506;2023-10-08T06:03:18;102540.34;;;18.55;59.55
70248;BME280;57641;51.416;5.506;2023-10-08T06:06:14;102531.91;;;18.59;59.70
70248;BME280;57641;51.416;5.506;2023-10-08T06:08:42;102517.56;;;18.58;59.46
70248;BME280;57641;51.416;5.506;2023-10-08T06:11:20;102510.81;;;18.20;60.11
70248;BME280;57641;51.416;5.506;2023-10-08T06:14:10;102517.28;;;18.35;59.81
70248;BME280;57641;51.416;5.506;2023-10-08T06:16:42;102516.31;;;18.44;59.57
70248;BME280;57641;51.416;5.506;2023-10-08T06:19:15;102519.31;;;18.41;59.31
70248;BME280;57641;51.416;5.506;2023-10-08T06:21:42;102514.63;;;18.51;59.40
70248;BME280;57641;51.416;5.506;2023-10-08T06:24:09;102523.56;;;18.44;59.24
70248;BME280;57641;51.416;5.506;2023-10-08T06:26:38;102517.66;;;18.48;59.34
70248;BME280;57641;51.416;5.506;2023-10-08T06:29:11;102508.94;;;18.54;58.94
70248;BME280;57641;51.416;5.506;2023-10-08T06:31:54;102525.41;;;18.43;59.03
70248;BME280;57641;51.416;5.506;2023-10-08T06:34:21;102529.38;;;18.57;58.82
70248;BME280;57641;51.416;5.506;2023-10-08T06:36:47;102527.00;;;18.62;58.87
70248;BME280;57641;51.416;5.506;2023-10-08T06:39:13;102539.66;;;18.62;59.45
70248;BME280;57641;51.416;5.506;2023-10-08T06:41:45;102548.16;;;18.75;58.66
70248;BME280;57641;51.416;5.506;2023-10-08T06:44:12;102548.16;;;18.75;59.26
70248;BME280;57641;51.416;5.506;2023-10-08T06:46:41;102550.16;;;18.73;59.37
70248;BME280;57641;51.416;5.506;2023-10-08T06:49:08;102551.72;;;18.75;60.20
70248;BME280;57641;51.416;5.506;2023-10-08T06:51:41;102548.66;;;18.78;60.24
70248;BME280;57641;51.416;5.506;2023-10-08T06:54:08;102546.31;;;18.75;60.06
70248;BME280;57641;51.416;5.506;2023-10-08T06:56:36;102533.91;;;18.56;59.63
70248;BME280;57641;51.416;5.506;2023-10-08T06:59:02;102538.00;;;18.69;59.85
70248;BME280;57641;51.416;5.506;2023-10-08T07:01:28;102541.41;;;18.71;60.10
70248;BME280;57641;51.416;5.506;2023-10-08T07:04:07;102560.66;;;18.76;59.81
70248;BME280;57641;51.416;5.506;2023-10-08T07:06:41;102553.22;;;18.78;60.27
70248;BME280;57641;51.416;5.506;2023-10-08T07:09:09;102553.72;;;18.65;60.23
70248;BME280;57641;51.416;5.506;2023-10-08T07:11:51;102562.16;;;18.70;60.91
70248;BME280;57641;51.416;5.506;2023-10-08T07:14:27;102562.53;;;18.75;60.65
70248;BME280;57641;51.416;5.506;2023-10-08T07:16:54;102559.66;;;18.77;60.39
70248;BME280;57641;51.416;5.506;2023-10-08T07:19:24;102568.78;;;18.84;60.21
70248;BME280;57641;51.416;5.506;2023-10-08T07:21:59;102564.06;;;18.86;60.62
70248;BME280;57641;51.416;5.506;2023-10-08T07:24:31;102566.06;;;18.84;61.28
70248;BME280;57641;51.416;5.506;2023-10-08T07:27:01;102568.16;;;18.98;60.16
70248;BME280;57641;51.416;5.506;2023-10-08T07:29:31;102564.59;;;19.06;59.89
70248;BME280;57641;51.416;5.506;2023-10-08T07:31:58;102570.19;;;19.12;58.49
70248;BME280;57641;51.416;5.506;2023-10-08T07:34:35;102574.91;;;19.10;58.27
70248;BME280;57641;51.416;5.506;2023-10-08T07:37:02;102587.25;;;19.13;58.13
70248;BME280;57641;51.416;5.506;2023-10-08T07:39:27;102587.78;;;19.24;57.88
70248;BME280;57641;51.416;5.506;2023-10-08T07:42:03;102587.78;;;19.24;58.39
70248;BME280;57641;51.416;5.506;2023-10-08T07:44:30;102581.00;;;19.36;58.07
70248;BME280;57641;51.416;5.506;2023-10-08T07:46:57;102594.03;;;19.33;58.11
70248;BME280;57641;51.416;5.506;2023-10-08T07:49:24;102596.56;;;19.42;57.91
70248;BME280;57641;51.416;5.506;2023-10-08T07:51:53;102599.97;;;19.53;57.83
70248;BME280;57641;51.416;5.506;2023-10-08T07:54:23;102596.94;;;19.56;58.18
70248;BME280;57641;51.416;5.506;2023-10-08T07:56:50;102588.81;;;19.64;57.63
70248;BME280;57641;51.416;5.506;2023-10-08T07:59:35;102597.94;;;19.63;58.60
70248;BME280;57641;51.416;5.506;2023-10-08T08:02:07;102592.72;;;19.61;58.29
70248;BME280;57641;51.416;5.506;2023-10-08T08:04:44;102592.34;;;19.72;57.95
70248;BME280;57641;51.416;5.506;2023-10-08T08:07:16;102590.66;;;19.88;57.82
70248;BME280;57641;51.416;5.506;2023-10-08T08:09:42;102599.75;;;19.95;57.97
70248;BME280;57641;51.416;5.506;2023-10-08T08:12:16;102597.22;;;20.01;58.38
70248;BME280;57641;51.416;5.506;2023-10-08T08:14:42;102603.28;;;20.11;58.08
70248;BME280;57641;51.416;5.506;2023-10-08T08:17:08;102607.00;;;20.18;57.71
70248;BME280;57641;51.416;5.506;2023-10-08T08:19:44;102615.44;;;20.23;57.65
70248;BME280;57641;51.416;5.506;2023-10-08T08:22:12;102628.84;;;20.17;57.54
70248;BME280;57641;51.416;5.506;2023-10-08T08:24:45;102631.00;;;20.30;57.42
70248;BME280;57641;51.416;5.506;2023-10-08T08:27:12;102632.66;;;20.31;57.40
70248;BME280;57641;51.416;5.506;2023-10-08T08:29:52;102628.44;;;20.44;57.41
70248;BME280;57641;51.416;5.506;2023-10-08T08:32:24;102627.59;;;20.44;58.09
70248;BME280;57641;51.416;5.506;2023-10-08T08:34:49;102630.25;;;20.52;57.55
70248;BME280;57641;51.416;5.506;2023-10-08T08:37:18;102641.56;;;20.63;57.51
70248;BME280;57641;51.416;5.506;2023-10-08T08:39:44;102650.53;;;20.72;57.93
70248;BME280;57641;51.416;5.506;2023-10-08T08:42:11;102655.41;;;20.77;58.54
70248;BME280;57641;51.416;5.506;2023-10-08T08:44:37;102656.91;;;20.79;58.32
70248;BME280;57641;51.416;5.506;2023-10-08T08:47:11;102662.19;;;20.81;58.86
70248;BME280;57641;51.416;5.506;2023-10-08T08:49:42;102665.94;;;20.72;59.07
70248;BME280;57641;51.416;5.506;2023-10-08T08:52:08;102665.13;;;20.63;59.12
70248;BME280;57641;51.416;5.506;2023-10-08T08:54:34;102676.13;;;20.70;59.37
70248;BME280;57641;51.416;5.506;2023-10-08T08:57:03;102671.63;;;20.85;59.51
70248;BME280;57641;51.416;5.506;2023-10-08T08:59:30;102666.34;;;20.91;59.31
70248;BME280;57641;51.416;5.506;2023-10-08T09:02:00;102666.00;;;20.94;59.28
70248;BME280;57641;51.416;5.506;2023-10-08T09:04:30;102664.50;;;20.84;59.38
70248;BME280;57641;51.416;5.506;2023-10-08T09:06:56;102666.81;;;21.03;59.32
70248;BME280;57641;51.416;5.506;2023-10-08T09:09:23;102673.41;;;21.00;58.72
70248;BME280;57641;51.416;5.506;2023-10-08T09:11:56;102670.47;;;21.10;59.27
70248;BME280;57641;51.416;5.506;2023-10-08T09:14:24;102675.75;;;21.12;59.51
70248;BME280;57641;51.416;5.506;2023-10-08T09:16:57;102675.22;;;21.16;58.94
70248;BME280;57641;51.416;5.506;2023-10-08T09:19:25;102682.63;;;21.30;58.64
70248;BME280;57641;51.416;5.506;2023-10-08T09:22:01;102680.25;;;21.27;58.29
70248;BME280;57641;51.416;5.506;2023-10-08T09:24:35;102676.53;;;21.28;58.74
70248;BME280;57641;51.416;5.506;2023-10-08T09:27:09;102673.94;;;21.35;59.37
70248;BME280;57641;51.416;5.506;2023-10-08T09:29:40;102679.31;;;21.43;59.10
70248;BME280;57641;51.416;5.506;2023-10-08T09:32:08;102675.41;;;21.45;58.95
70248;BME280;57641;51.416;5.506;2023-10-08T09:34:34;102672.69;;;21.45;59.05
70248;BME280;57641;51.416;5.506;2023-10-08T09:37:01;102667.91;;;21.47;58.91
70248;BME280;57641;51.416;5.506;2023-10-08T09:39:30;102670.84;;;21.38;58.69
70248;BME280;57641;51.416;5.506;2023-10-08T09:42:03;102678.53;;;21.34;58.85
70248;BME280;57641;51.416;5.506;2023-10-08T09:44:30;102677.56;;;21.50;59.05
70248;BME280;57641;51.416;5.506;2023-10-08T09:47:08;102668.88;;;21.55;59.57
70248;BME280;57641;51.416;5.506;2023-10-08T09:49:39;102678.28;;;21.67;58.84
70248;BME280;57641;51.416;5.506;2023-10-08T09:52:07;102671.50;;;21.63;59.02
70248;BME280;57641;51.416;5.506;2023-10-08T09:54:54;102667.53;;;21.73;59.11
70248;BME280;57641;51.416;5.506;2023-10-08T09:57:22;102667.91;;;21.70;59.22
70248;BME280;57641;51.416;5.506;2023-10-08T09:59:49;102660.44;;;21.72;58.87
70248;BME280;57641;51.416;5.506;2023-10-08T10:02:16;102668.31;;;21.59;59.47
70248;BME280;57641;51.416;5.506;2023-10-08T10:07:10;102673.06;;;21.80;59.86
70248;BME280;57641;51.416;5.506;2023-10-08T10:09:38;102670.00;;;21.83;59.64
70248;BME280;57641;51.416;5.506;2023-10-08T10:12:05;102667.59;;;21.88;59.14
70248;BME280;57641;51.416;5.506;2023-10-08T10:14:46;102653.41;;;22.01;59.76
70248;BME280;57641;51.416;5.506;2023-10-08T10:17:19;102647.78;;;22.02;59.08
70248;BME280;57641;51.416;5.506;2023-10-08T10:20:11;102652.59;;;22.15;59.82
70248;BME280;57641;51.416;5.506;2023-10-08T10:22:38;102645.47;;;22.28;59.12
70248;BME280;57641;51.416;5.506;2023-10-08T10:25:05;102645.94;;;22.32;58.92
70248;BME280;57641;51.416;5.506;2023-10-08T10:30:20;102653.72;;;22.50;58.56
70248;BME280;57641;51.416;5.506;2023-10-08T10:32:51;102656.91;;;22.53;58.77
70248;BME280;57641;51.416;5.506;2023-10-08T10:35:17;102657.38;;;22.57;58.10
70248;BME280;57641;51.416;5.506;2023-10-08T10:37:51;102649.69;;;22.60;58.21
70248;BME280;57641;51.416;5.506;2023-10-08T10:40:20;102649.69;;;22.60;57.97
70248;BME280;57641;51.416;5.506;2023-10-08T10:42:58;102649.97;;;22.65;58.47
70248;BME280;57641;51.416;5.506;2023-10-08T10:45:28;102657.53;;;22.70;58.30
70248;BME280;57641;51.416;5.506;2023-10-08T10:48:05;102657.22;;;22.73;58.23
70248;BME280;57641;51.416;5.506;2023-10-08T10:50:50;102649.41;;;22.41;58.72
70248;BME280;57641;51.416;5.506;2023-10-08T10:53:38;102657.09;;;22.66;58.42
70248;BME280;57641;51.416;5.506;2023-10-08T10:56:14;102660.25;;;22.70;59.01
70248;BME280;57641;51.416;5.506;2023-10-08T10:58:58;102663.09;;;22.77;59.47
70248;BME280;57641;51.416;5.506;2023-10-08T11:01:27;102650.81;;;22.81;58.39
70248;BME280;57641;51.416;5.506;2023-10-08T11:03:56;102648.00;;;22.89;58.09
70248;BME280;57641;51.416;5.506;2023-10-08T11:06:25;102647.72;;;22.84;58.15
70248;BME280;57641;51.416;5.506;2023-10-08T11:08:52;102648.34;;;22.86;58.00
70248;BME280;57641;51.416;5.506;2023-10-08T11:11:19;102657.63;;;22.91;57.74
70248;BME280;57641;51.416;5.506;2023-10-08T11:13:56;102652.31;;;22.83;57.91
70248;BME280;57641;51.416;5.506;2023-10-08T11:16:26;102652.41;;;22.75;57.78
70248;BME280;57641;51.416;5.506;2023-10-08T11:18:53;102655.78;;;22.77;58.69
70248;BME280;57641;51.416;5.506;2023-10-08T11:21:23;102658.78;;;22.82;58.53
70248;BME280;57641;51.416;5.506;2023-10-08T11:23:51;102652.69;;;22.80;58.71
70248;BME280;57641;51.416;5.506;2023-10-08T11:26:25;102656.25;;;22.81;58.40
70248;BME280;57641;51.416;5.506;2023-10-08T11:29:01;102652.22;;;22.77;58.76
70248;BME280;57641;51.416;5.506;2023-10-08T11:31:28;102648.38;;;22.71;58.38
70248;BME280;57641;51.416;5.506;2023-10-08T11:33:59;102655.53;;;22.72;58.06
70248;BME280;57641;51.416;5.506;2023-10-08T11:36:27;102657.53;;;22.70;58.75
70248;BME280;57641;51.416;5.506;2023-10-08T11:38:54;102654.81;;;22.70;59.41
70248;BME280;57641;51.416;5.506;2023-10-08T11:41:27;102658.25;;;22.72;59.76
70248;BME280;57641;51.416;5.506;2023-10-08T11:43:54;102652.94;;;22.70;58.87
70248;BME280;57641;51.416;5.506;2023-10-08T11:46:30;102657.50;;;22.78;58.89
70248;BME280;57641;51.416;5.506;2023-10-08T11:49:04;102644.06;;;22.77;59.29
70248;BME280;57641;51.416;5.506;2023-10-08T11:51:36;102650.81;;;22.81;59.21
70248;BME280;57641;51.416;5.506;2023-10-08T11:54:02;102639.16;;;22.87;59.24
70248;BME280;57641;51.416;5.506;2023-10-08T11:56:32;102644.47;;;22.95;58.64
70248;BME280;57641;51.416;5.506;2023-10-08T11:59:01;102652.72;;;23.01;58.20
70248;BME280;57641;51.416;5.506;2023-10-08T12:01:30;102635.13;;;22.97;58.03
70248;BME280;57641;51.416;5.506;2023-10-08T12:04:00;102634.09;;;22.98;58.62
70248;BME280;57641;51.416;5.506;2023-10-08T12:06:26;102639.88;;;22.95;58.53
70248;BME280;57641;51.416;5.506;2023-10-08T12:08:58;102638.50;;;22.85;58.92
70248;BME280;57641;51.416;5.506;2023-10-08T12:11:37;102625.13;;;22.83;59.30
70248;BME280;57641;51.416;5.506;2023-10-08T12:14:03;102614.88;;;22.85;59.22
70248;BME280;57641;51.416;5.506;2023-10-08T12:16:28;102616.66;;;22.93;59.20
70248;BME280;57641;51.416;5.506;2023-10-08T12:19:01;102612.78;;;23.02;59.21
70248;BME280;57641;51.416;5.506;2023-10-08T12:21:30;102604.44;;;23.03;58.58
70248;BME280;57641;51.416;5.506;2023-10-08T12:23:59;102614.28;;;22.90;58.75
70248;BME280;57641;51.416;5.506;2023-10-08T12:26:26;102608.84;;;23.04;58.66
70248;BME280;57641;51.416;5.506;2023-10-08T12:28:52;102615.31;;;23.03;58.63
70248;BME280;57641;51.416;5.506;2023-10-08T12:31:20;102612.41;;;23.05;58.30
70248;BME280;57641;51.416;5.506;2023-10-08T12:33:50;102602.72;;;23.02;58.72
70248;BME280;57641;51.416;5.506;2023-10-08T12:36:21;102598.91;;;22.97;58.97
70248;BME280;57641;51.416;5.506;2023-10-08T12:38:51;102597.59;;;22.93;58.68
70248;BME280;57641;51.416;5.506;2023-10-08T12:41:24;102608.94;;;22.96;58.44
70248;BME280;57641;51.416;5.506;2023-10-08T12:43:52;102601.44;;;22.98;58.73
70248;BME280;57641;51.416;5.506;2023-10-08T12:46:22;102608.75;;;22.98;59.24
70248;BME280;57641;51.416;5.506;2023-10-08T12:48:51;102604.34;;;22.97;58.44
70248;BME280;57641;51.416;5.506;2023-10-08T12:51:23;102601.44;;;22.98;58.95
70248;BME280;57641;51.416;5.506;2023-10-08T12:53:50;102595.41;;;23.03;58.51
70248;BME280;57641;51.416;5.506;2023-10-08T12:56:16;102600.00;;;23.02;58.28
70248;BME280;57641;51.416;5.506;2023-10-08T12:58:46;102592.28;;;22.85;58.58
70248;BME280;57641;51.416;5.506;2023-10-08T13:01:17;102592.78;;;22.95;58.70
70248;BME280;57641;51.416;5.506;2023-10-08T13:03:46;102579.84;;;22.97;59.32
70248;BME280;57641;51.416;5.506;2023-10-08T13:06:17;102579.94;;;23.03;58.78
70248;BME280;57641;51.416;5.506;2023-10-08T13:08:54;102580.97;;;23.02;58.52
70248;BME280;57641;51.416;5.506;2023-10-08T13:11:25;102576.56;;;23.01;58.91
70248;BME280;57641;51.416;5.506;2023-10-08T13:13:55;102565.09;;;23.06;58.49
70248;BME280;57641;51.416;5.506;2023-10-08T13:16:25;102566.59;;;23.08;58.70
70248;BME280;57641;51.416;5.506;2023-10-08T13:18:52;102567.25;;;23.10;58.29